createdAt,value
2019-02-28T00:00:28.639Z,73.91
2019-02-28T00:02:56.936Z,74.02
2019-02-28T00:05:25.594Z,74.10
2019-02-28T00:07:53.888Z,74.19
2019-02-28T00:10:22.175Z,74.16
2019-02-28T00:12:50.558Z,74.23
2019-02-28T00:15:19.202Z,74.34
2019-02-28T00:17:47.511Z,74.29
2019-02-28T00:20:15.829Z,74.37
2019-02-28T00:22:48.382Z,74.47
2019-02-28T00:25:14.408Z,74.65
2019-02-28T00:27:42.715Z,74.76
2019-02-28T00:30:13.504Z,74.93
2019-02-28T00:32:41.822Z,75.02
2019-02-28T00:35:13.016Z,75.26
2019-02-28T00:37:40.238Z,75.31
2019-02-28T00:40:10.358Z,75.38
2019-02-28T00:42:38.653Z,75.44
2019-02-28T00:45:12.102Z,75.56
2019-02-28T00:47:40.471Z,75.68
2019-02-28T00:50:08.865Z,75.75
2019-02-28T00:52:37.171Z,75.79
2019-02-28T00:55:15.221Z,75.94
2019-02-28T00:57:43.974Z,75.84
2019-02-28T01:00:20.550Z,76.00
2019-02-28T01:02:53.240Z,76.15
2019-02-28T01:05:19.276Z,76.16
2019-02-28T01:07:48.947Z,76.24
2019-02-28T01:10:17.532Z,76.32
2019-02-28T01:12:45.839Z,76.32
2019-02-28T01:15:18.339Z,76.27
2019-02-28T01:17:46.970Z,76.25
2019-02-28T01:20:16.581Z,76.25
2019-02-28T01:22:45.075Z,76.31
2019-02-28T01:25:17.849Z,76.43
2019-02-28T01:27:46.190Z,76.70
2019-02-28T01:30:18.055Z,76.75
2019-02-28T01:32:49.915Z,76.72
2019-02-28T01:35:16.616Z,76.72
2019-02-28T01:37:45.483Z,76.72
2019-02-28T01:40:14.728Z,76.85
2019-02-28T01:42:43.222Z,76.94
2019-02-28T01:45:12.949Z,76.99
2019-02-28T01:47:41.260Z,76.86
2019-02-28T01:50:11.017Z,76.99
2019-02-28T01:52:44.398Z,77.13
2019-02-28T01:55:10.784Z,77.20
2019-02-28T01:57:42.262Z,77.27
2019-02-28T02:00:19.380Z,77.35
2019-02-28T02:02:47.628Z,77.38
2019-02-28T02:05:17.297Z,77.50
2019-02-28T02:07:46.314Z,77.60
2019-02-28T02:10:22.536Z,77.67
2019-02-28T02:12:51.685Z,77.97
2019-02-28T02:15:20.536Z,78.07
2019-02-28T02:17:48.842Z,78.07
2019-02-28T02:20:17.628Z,77.92
2019-02-28T02:22:45.919Z,77.81
2019-02-28T02:25:14.441Z,77.84
2019-02-28T02:27:42.836Z,77.95
2019-02-28T02:30:16.452Z,78.11
2019-02-28T02:32:45.128Z,78.29
2019-02-28T02:35:13.522Z,78.34
2019-02-28T02:37:41.844Z,78.41
2019-02-28T02:40:12.781Z,78.56
2019-02-28T02:42:47.259Z,78.53
2019-02-28T02:45:13.030Z,78.54
2019-02-28T02:47:41.338Z,78.65
2019-02-28T02:50:14.030Z,78.77
2019-02-28T02:52:42.459Z,78.96
2019-02-28T02:55:10.796Z,78.90
2019-02-28T02:57:39.086Z,79.03
2019-02-28T03:00:14.896Z,79.23
2019-02-28T03:02:43.522Z,79.40
2019-02-28T03:05:11.918Z,79.42
2019-02-28T03:07:40.560Z,79.46
2019-02-28T03:10:20.031Z,79.67
2019-02-28T03:12:48.325Z,79.72
2019-02-28T03:15:25.548Z,79.61
2019-02-28T03:17:48.836Z,79.46
2019-02-28T03:20:17.654Z,79.37
2019-02-28T03:22:45.961Z,79.37
2019-02-28T03:25:15.502Z,79.87
2019-02-28T03:27:43.839Z,79.93
2019-02-28T03:30:28.705Z,79.87
2019-02-28T03:32:51.297Z,79.87
2019-02-28T03:35:19.721Z,79.78
2019-02-28T03:37:48.045Z,79.83
2019-02-28T03:40:16.354Z,79.86
2019-02-28T03:42:44.650Z,79.97
2019-02-28T03:45:15.863Z,80.04
2019-02-28T03:47:44.530Z,80.13
2019-02-28T03:50:13.316Z,80.09
2019-02-28T03:52:44.067Z,80.23
2019-02-28T03:55:13.458Z,80.47
2019-02-28T03:57:41.951Z,80.48
2019-02-28T04:00:13.516Z,80.52
2019-02-28T04:02:41.903Z,80.60
2019-02-28T04:05:10.257Z,80.79
2019-02-28T04:07:38.513Z,80.98
2019-02-28T04:10:09.268Z,80.96
2019-02-28T04:12:45.157Z,81.00
2019-02-28T04:15:13.518Z,81.22
2019-02-28T04:17:41.811Z,81.32
2019-02-28T04:20:10.295Z,81.33
2019-02-28T04:22:38.680Z,81.30
2019-02-28T04:25:08.415Z,81.29
2019-02-28T04:27:40.473Z,81.35
2019-02-28T04:30:10.085Z,81.39
2019-02-28T04:32:38.387Z,81.32
2019-02-28T04:35:06.880Z,81.47
2019-02-28T04:37:35.177Z,81.63
2019-02-28T04:40:06.329Z,81.77
2019-02-28T04:42:36.662Z,81.80
2019-02-28T04:45:06.664Z,81.82
2019-02-28T04:47:37.226Z,81.88
2019-02-28T04:50:07.630Z,81.93
2019-02-28T04:52:35.943Z,81.93
2019-02-28T04:55:05.501Z,82.00
2019-02-28T04:57:33.819Z,81.89
2019-02-28T05:00:02.119Z,81.95
2019-02-28T05:02:30.453Z,82.02
2019-02-28T05:04:59.057Z,82.22
2019-02-28T05:07:29.686Z,82.33
2019-02-28T05:09:57.430Z,82.37
2019-02-28T05:12:25.969Z,82.38
2019-02-28T05:14:55.251Z,82.39
2019-02-28T05:17:24.587Z,82.40
2019-02-28T05:19:55.143Z,82.49
2019-02-28T05:22:24.397Z,82.65
2019-02-28T05:24:53.670Z,82.63
2019-02-28T05:27:24.316Z,82.76
2019-02-28T05:29:52.009Z,82.83
2019-02-28T05:32:20.309Z,82.95
2019-02-28T05:34:51.084Z,83.16
2019-02-28T05:37:18.655Z,83.48
2019-02-28T05:39:46.969Z,83.82
2019-02-28T05:42:15.605Z,84.21
2019-02-28T05:44:43.921Z,84.57
2019-02-28T05:47:12.214Z,84.97
2019-02-28T05:49:40.847Z,85.12
2019-02-28T05:52:10.546Z,85.24
2019-02-28T05:54:38.871Z,85.14
2019-02-28T05:57:08.056Z,85.36
2019-02-28T05:59:37.368Z,85.48
2019-02-28T06:02:05.675Z,85.42
2019-02-28T06:04:34.168Z,85.57
2019-02-28T06:07:04.025Z,85.71
2019-02-28T06:09:32.668Z,85.69
2019-02-28T06:12:00.920Z,85.85
2019-02-28T06:14:29.236Z,85.80
2019-02-28T06:16:57.645Z,85.87
2019-02-28T06:19:25.977Z,85.96
2019-02-28T06:21:56.330Z,86.02
2019-02-28T06:24:24.308Z,86.00
2019-02-28T06:26:52.631Z,86.18
2019-02-28T06:29:20.965Z,86.19
2019-02-28T06:31:49.464Z,86.30
2019-02-28T06:34:18.105Z,86.35
2019-02-28T06:36:46.407Z,86.43
2019-02-28T06:39:15.069Z,86.46
2019-02-28T06:41:43.362Z,86.58
2019-02-28T06:44:11.651Z,86.68
2019-02-28T06:46:40.777Z,86.59
2019-02-28T06:49:09.246Z,86.62
2019-02-28T06:51:37.567Z,86.66
2019-02-28T06:54:07.947Z,86.64
2019-02-28T06:56:36.435Z,86.66
2019-02-28T06:59:05.600Z,86.54
2019-02-28T07:01:33.870Z,86.61
2019-02-28T07:04:02.151Z,86.65
2019-02-28T07:06:35.681Z,86.71
2019-02-28T07:09:02.382Z,86.51
2019-02-28T07:11:30.537Z,86.36
2019-02-28T07:13:58.863Z,86.30
2019-02-28T07:16:30.703Z,86.35
2019-02-28T07:18:57.544Z,86.30
2019-02-28T07:21:25.846Z,86.25
2019-02-28T07:23:54.171Z,86.18
2019-02-28T07:26:22.473Z,86.13
2019-02-28T07:28:50.794Z,86.12
2019-02-28T07:31:21.672Z,86.12
2019-02-28T07:33:51.313Z,86.01
2019-02-28T07:36:19.207Z,85.91
2019-02-28T07:38:47.517Z,85.69
2019-02-28T07:41:15.855Z,85.60
2019-02-28T07:43:46.099Z,85.41
2019-02-28T07:46:14.434Z,85.31
2019-02-28T07:48:42.738Z,85.09
2019-02-28T07:51:11.066Z,84.97
2019-02-28T07:53:40.980Z,84.85
2019-02-28T07:56:09.702Z,84.97
2019-02-28T07:58:38.066Z,84.94
2019-02-28T08:01:06.448Z,84.96
2019-02-28T08:03:34.751Z,84.88
2019-02-28T08:06:04.926Z,84.67
2019-02-28T08:08:33.175Z,84.61
2019-02-28T08:11:01.864Z,84.71
2019-02-28T08:13:30.160Z,84.51
2019-02-28T08:16:00.347Z,84.50
2019-02-28T08:18:28.718Z,84.49
2019-02-28T08:20:57.023Z,84.34
2019-02-28T08:23:25.320Z,84.14
2019-02-28T08:25:53.704Z,83.62
2019-02-28T08:28:22.605Z,83.50
2019-02-28T08:30:54.975Z,83.36
2019-02-28T08:33:20.917Z,83.12
2019-02-28T08:35:49.224Z,82.99
2019-02-28T08:38:17.519Z,82.76
2019-02-28T08:40:50.530Z,82.41
2019-02-28T08:43:16.127Z,82.29
2019-02-28T08:45:44.716Z,82.16
2019-02-28T08:48:13.021Z,81.89
2019-02-28T08:50:41.318Z,81.51
2019-02-28T08:53:12.409Z,81.45
2019-02-28T08:55:44.116Z,80.79
2019-02-28T08:58:10.089Z,80.69
2019-02-28T09:00:38.424Z,80.24
2019-02-28T09:03:06.988Z,79.94
2019-02-28T09:05:35.356Z,79.65
2019-02-28T09:08:03.841Z,79.29
2019-02-28T09:10:32.153Z,78.98
2019-02-28T09:13:00.474Z,78.91
2019-02-28T09:15:31.110Z,78.43
2019-02-28T09:17:59.696Z,78.00
2019-02-28T09:20:28.025Z,77.99
2019-02-28T09:23:01.665Z,77.23
2019-02-28T09:25:27.077Z,77.15
2019-02-28T09:27:55.434Z,76.82
2019-02-28T09:30:29.618Z,76.69
2019-02-28T09:32:57.733Z,76.59
2019-02-28T09:35:26.151Z,76.22
2019-02-28T09:37:54.474Z,75.88
2019-02-28T09:40:25.667Z,75.76
2019-02-28T09:42:53.186Z,75.93
2019-02-28T09:45:23.165Z,75.86
2019-02-28T09:47:51.476Z,75.86
2019-02-28T09:50:22.536Z,75.76
2019-02-28T09:52:51.613Z,75.31
2019-02-28T09:55:19.908Z,74.90
2019-02-28T09:57:53.775Z,74.75
2019-02-28T10:00:27.637Z,74.69
2019-02-28T10:02:56.087Z,74.34
2019-02-28T10:05:24.400Z,73.96
2019-02-28T10:07:52.777Z,73.94
2019-02-28T10:10:22.724Z,73.73
2019-02-28T10:12:51.444Z,73.58
2019-02-28T10:15:21.283Z,73.66
2019-02-28T10:17:49.750Z,73.34
2019-02-28T10:20:20.216Z,73.16
2019-02-28T10:22:48.532Z,73.06
2019-02-28T10:25:16.934Z,72.78
2019-02-28T10:27:45.241Z,72.82
2019-02-28T10:30:31.167Z,72.54
2019-02-28T10:32:52.001Z,72.19
2019-02-28T10:35:20.383Z,71.92
2019-02-28T10:37:49.928Z,71.58
2019-02-28T10:40:23.371Z,71.49
2019-02-28T10:42:51.683Z,71.39
2019-02-28T10:45:20.229Z,71.16
2019-02-28T10:47:48.829Z,71.05
2019-02-28T10:50:33.240Z,71.05
2019-02-28T10:53:05.389Z,70.52
2019-02-28T10:55:31.501Z,70.14
2019-02-28T10:57:59.804Z,69.44
2019-02-28T11:00:34.283Z,69.02
2019-02-28T11:03:02.856Z,68.31
2019-02-28T11:05:33.682Z,68.00
2019-02-28T11:08:02.767Z,67.70
2019-02-28T11:10:35.648Z,67.26
2019-02-28T11:13:02.764Z,66.97
2019-02-28T11:15:31.765Z,66.42
2019-02-28T11:18:00.394Z,65.69
2019-02-28T11:20:28.770Z,65.82
2019-02-28T11:22:57.110Z,65.87
2019-02-28T11:25:26.982Z,65.97
2019-02-28T11:27:55.634Z,66.22
2019-02-28T11:30:28.738Z,66.17
2019-02-28T11:32:57.124Z,65.95
2019-02-28T11:35:25.494Z,65.67
2019-02-28T11:37:53.984Z,65.54
2019-02-28T11:40:27.841Z,65.73
2019-02-28T11:42:56.207Z,65.87
2019-02-28T11:45:29.666Z,65.86
2019-02-28T11:47:59.843Z,65.63
2019-02-28T11:50:28.162Z,65.52
2019-02-28T11:53:03.233Z,65.58
2019-02-28T11:55:27.223Z,65.47
2019-02-28T11:57:56.043Z,65.01
2019-02-28T12:00:27.635Z,64.57
2019-02-28T12:02:59.912Z,63.65
2019-02-28T12:05:26.594Z,63.14
2019-02-28T12:07:55.205Z,63.13
2019-02-28T12:10:26.911Z,62.70
2019-02-28T12:12:56.350Z,62.39
2019-02-28T12:15:41.320Z,62.32
2019-02-28T12:18:09.748Z,61.92
2019-02-28T12:20:38.067Z,61.71
2019-02-28T12:23:06.381Z,61.75
2019-02-28T12:25:34.706Z,61.54
2019-02-28T12:28:06.308Z,61.52
2019-02-28T12:30:34.318Z,61.29
2019-02-28T12:33:02.709Z,60.47
2019-02-28T12:35:36.298Z,60.39
2019-02-28T12:38:01.684Z,60.38
2019-02-28T12:40:42.468Z,59.87
2019-02-28T12:43:13.029Z,59.55
2019-02-28T12:45:46.420Z,59.61
2019-02-28T12:48:14.686Z,59.71
2019-02-28T12:50:43.116Z,59.88
2019-02-28T12:53:11.514Z,59.97
2019-02-28T12:55:41.408Z,60.08
2019-02-28T12:58:09.702Z,59.56
2019-02-28T13:00:42.163Z,59.58
2019-02-28T13:03:11.040Z,59.58
2019-02-28T13:05:39.444Z,59.50
2019-02-28T13:08:07.753Z,59.77
2019-02-28T13:10:36.343Z,59.94
2019-02-28T13:13:06.839Z,59.83
2019-02-28T13:15:35.555Z,59.73
2019-02-28T13:18:09.200Z,59.87
2019-02-28T13:20:36.842Z,59.84
2019-02-28T13:23:05.434Z,59.81
2019-02-28T13:25:33.806Z,59.51
2019-02-28T13:28:02.123Z,59.22
2019-02-28T13:30:30.450Z,59.70
2019-02-28T13:32:58.916Z,60.01
2019-02-28T13:35:32.106Z,60.04
2019-02-28T13:38:00.500Z,60.63
2019-02-28T13:40:29.213Z,60.50
2019-02-28T13:42:57.611Z,60.62
2019-02-28T13:45:26.577Z,61.13
2019-02-28T13:47:54.979Z,61.31
2019-02-28T13:50:32.617Z,61.39
2019-02-28T13:53:03.731Z,61.41
2019-02-28T13:55:31.632Z,60.94
2019-02-28T13:57:59.973Z,61.49
2019-02-28T14:00:30.281Z,61.60
2019-02-28T14:03:01.234Z,61.64
2019-02-28T14:05:29.777Z,61.66
2019-02-28T14:07:58.109Z,61.98
2019-02-28T14:10:29.652Z,62.29
2019-02-28T14:12:57.994Z,62.55
2019-02-28T14:15:35.694Z,62.65
2019-02-28T14:18:04.154Z,62.47
2019-02-28T14:20:32.473Z,62.38
2019-02-28T14:23:00.970Z,62.65
2019-02-28T14:25:29.472Z,62.79
2019-02-28T14:28:00.263Z,63.15
2019-02-28T14:30:28.826Z,63.36
2019-02-28T14:32:57.122Z,63.71
2019-02-28T14:35:27.367Z,63.58
2019-02-28T14:37:56.930Z,63.64
2019-02-28T14:40:25.505Z,63.64
2019-02-28T14:42:53.819Z,63.45
2019-02-28T14:45:27.895Z,63.36
2019-02-28T14:47:57.370Z,63.48
2019-02-28T14:50:25.838Z,63.40
2019-02-28T14:52:56.179Z,63.77
2019-02-28T14:55:24.490Z,63.74
2019-02-28T14:57:55.084Z,63.66
2019-02-28T15:00:35.437Z,63.48
2019-02-28T15:03:04.304Z,63.39
2019-02-28T15:05:37.769Z,63.39
2019-02-28T15:08:06.072Z,63.73
2019-02-28T15:10:35.290Z,64.09
2019-02-28T15:13:04.871Z,64.51
2019-02-28T15:15:36.198Z,65.14
2019-02-28T15:18:04.457Z,65.82
2019-02-28T15:20:33.314Z,67.39
2019-02-28T15:23:02.172Z,68.39
2019-02-28T15:25:31.047Z,69.31
2019-02-28T15:27:59.368Z,70.11
2019-02-28T15:30:36.610Z,70.50
2019-02-28T15:33:04.999Z,71.00
2019-02-28T15:35:33.336Z,71.52
2019-02-28T15:38:01.654Z,71.91
2019-02-28T15:40:33.218Z,72.78
2019-02-28T15:43:01.520Z,73.48
2019-02-28T15:45:29.852Z,73.68
2019-02-28T15:48:00.236Z,74.04
2019-02-28T15:50:28.559Z,74.26
2019-02-28T15:52:57.135Z,74.23
2019-02-28T15:55:25.622Z,74.38
2019-02-28T15:57:53.993Z,74.61
2019-02-28T16:00:28.573Z,74.82
2019-02-28T16:02:57.413Z,75.04
2019-02-28T16:05:25.797Z,75.29
2019-02-28T16:07:54.602Z,75.37
2019-02-28T16:10:33.916Z,75.28
2019-02-28T16:13:02.311Z,75.40
2019-02-28T16:15:30.720Z,75.52
2019-02-28T16:17:59.100Z,75.32
2019-02-28T16:20:28.663Z,75.46
2019-02-28T16:22:57.462Z,75.65
2019-02-28T16:25:36.986Z,75.63
2019-02-28T16:28:08.579Z,75.67
2019-02-28T16:30:38.278Z,75.72
2019-02-28T16:33:08.332Z,75.83
2019-02-28T16:35:36.648Z,75.94
2019-02-28T16:38:06.548Z,75.95
2019-02-28T16:40:35.070Z,76.11
2019-02-28T16:43:03.465Z,76.16
2019-02-28T16:45:45.353Z,76.14
2019-02-28T16:48:13.680Z,76.23
2019-02-28T16:50:41.988Z,76.11
2019-02-28T16:53:15.037Z,76.18
2019-02-28T16:55:40.521Z,76.13
2019-02-28T16:58:09.486Z,76.08
2019-02-28T17:00:39.514Z,76.22
2019-02-28T17:03:08.323Z,76.22
2019-02-28T17:05:36.650Z,76.22
2019-02-28T17:08:06.809Z,76.22
2019-02-28T17:10:36.324Z,76.26
2019-02-28T17:13:12.988Z,76.26
2019-02-28T17:15:42.961Z,76.38
2019-02-28T17:18:13.044Z,76.33
2019-02-28T17:20:41.515Z,76.40
2019-02-28T17:23:09.787Z,76.44
2019-02-28T17:25:38.133Z,76.50
2019-02-28T17:28:17.205Z,76.53
2019-02-28T17:30:47.249Z,76.49
2019-02-28T17:33:15.578Z,76.55
2019-02-28T17:35:43.896Z,76.65
2019-02-28T17:38:12.498Z,76.68
2019-02-28T17:40:40.759Z,76.63
2019-02-28T17:43:09.082Z,76.69
2019-02-28T17:45:37.448Z,76.66
2019-02-28T17:48:33.293Z,76.69
2019-02-28T17:51:07.791Z,76.80
2019-02-28T17:53:44.943Z,76.77
2019-02-28T17:56:33.326Z,76.90
2019-02-28T17:59:22.938Z,77.00
2019-02-28T18:02:14.256Z,77.00
2019-02-28T18:04:45.729Z,76.83
2019-02-28T18:07:20.014Z,76.76
2019-02-28T18:10:15.025Z,76.73
2019-02-28T18:12:52.114Z,76.77
2019-02-28T18:15:37.992Z,76.69
2019-02-28T18:18:09.852Z,76.71
2019-02-28T18:20:44.090Z,76.80
2019-02-28T18:23:21.339Z,76.80
2019-02-28T18:26:01.755Z,76.67
2019-02-28T18:28:42.036Z,76.56
2019-02-28T18:31:12.336Z,76.49
2019-02-28T18:33:48.648Z,76.56
2019-02-28T18:36:22.476Z,76.47
2019-02-28T18:38:50.784Z,76.40
2019-02-28T18:41:19.115Z,76.45
2019-02-28T18:43:47.424Z,76.39
2019-02-28T18:46:15.741Z,76.21
2019-02-28T18:48:44.037Z,76.10
2019-02-28T18:51:12.419Z,76.16
2019-02-28T18:53:41.063Z,76.10
2019-02-28T18:56:09.399Z,76.09
2019-02-28T18:58:37.692Z,76.12
2019-02-28T19:01:06.182Z,76.26
2019-02-28T19:03:34.482Z,76.25
2019-02-28T19:06:02.794Z,76.20
2019-02-28T19:08:31.545Z,76.21
2019-02-28T19:11:00.128Z,76.14
2019-02-28T19:13:28.425Z,76.23
2019-02-28T19:15:57.088Z,76.26
2019-02-28T19:18:25.388Z,76.33
2019-02-28T19:20:55.663Z,76.27
2019-02-28T19:23:24.068Z,76.46
2019-02-28T19:25:52.761Z,76.48
2019-02-28T19:28:21.069Z,76.61
2019-02-28T19:30:49.401Z,76.70
2019-02-28T19:33:17.701Z,76.85
2019-02-28T19:35:46.976Z,77.05
2019-02-28T19:38:15.274Z,77.09
2019-02-28T19:40:43.585Z,77.34
2019-02-28T19:43:11.922Z,77.35
2019-02-28T19:45:46.258Z,77.38
2019-02-28T19:48:14.654Z,77.42
2019-02-28T19:50:42.959Z,77.41
2019-02-28T19:53:11.290Z,77.29
2019-02-28T19:55:39.613Z,77.59
2019-02-28T19:58:08.223Z,77.69
2019-02-28T20:00:36.824Z,77.93
2019-02-28T20:03:05.313Z,78.29
2019-02-28T20:05:33.996Z,78.40
2019-02-28T20:08:02.300Z,78.47
2019-02-28T20:10:30.614Z,78.37
2019-02-28T20:12:59.219Z,78.49
2019-02-28T20:15:32.221Z,78.49
2019-02-28T20:18:00.556Z,78.57
2019-02-28T20:20:30.099Z,78.49
2019-02-28T20:22:58.489Z,78.58
2019-02-28T20:25:26.835Z,78.42
2019-02-28T20:27:55.141Z,78.38
2019-02-28T20:30:25.120Z,78.42
2019-02-28T20:32:53.672Z,78.42
2019-02-28T20:35:26.513Z,78.46
2019-02-28T20:37:52.188Z,78.47
2019-02-28T20:40:32.100Z,78.65
2019-02-28T20:43:00.479Z,78.74
2019-02-28T20:45:28.802Z,78.83
2019-02-28T20:47:57.664Z,78.84
2019-02-28T20:50:38.546Z,78.85
2019-02-28T20:53:06.842Z,78.85
2019-02-28T20:55:35.200Z,78.87
2019-02-28T20:58:03.933Z,78.92
2019-02-28T21:00:33.154Z,78.82
2019-02-28T21:03:01.567Z,78.99
2019-02-28T21:05:29.879Z,79.03
2019-02-28T21:07:58.283Z,79.09
2019-02-28T21:10:26.687Z,79.34
2019-02-28T21:12:55.064Z,79.87
2019-02-28T21:15:24.791Z,80.36
2019-02-28T21:17:53.268Z,81.04
2019-02-28T21:20:21.895Z,81.41
2019-02-28T21:22:50.598Z,81.57
2019-02-28T21:25:19.180Z,81.58
2019-02-28T21:27:47.491Z,81.76
2019-02-28T21:30:26.302Z,81.76
2019-02-28T21:32:54.630Z,81.67
2019-02-28T21:35:23.472Z,81.78
2019-02-28T21:37:51.870Z,81.62
2019-02-28T21:40:21.371Z,81.77
2019-02-28T21:42:49.667Z,81.78
2019-02-28T21:45:25.358Z,81.78
2019-02-28T21:47:53.720Z,82.27
2019-02-28T21:50:22.028Z,82.75
2019-02-28T21:52:50.349Z,83.39
2019-02-28T21:55:18.913Z,83.88
2019-02-28T21:57:47.206Z,84.17
2019-02-28T22:00:30.362Z,84.37
2019-02-28T22:02:58.666Z,84.16
2019-02-28T22:05:27.131Z,84.52
2019-02-28T22:07:55.677Z,84.67
2019-02-28T22:10:24.166Z,84.83
2019-02-28T22:12:52.486Z,84.76
2019-02-28T22:15:21.933Z,84.83
2019-02-28T22:17:50.550Z,84.79
2019-02-28T22:20:19.140Z,84.84
2019-02-28T22:22:47.478Z,84.77
2019-02-28T22:25:18.530Z,84.75
2019-02-28T22:27:46.876Z,84.74
2019-02-28T22:30:37.701Z,84.79
2019-02-28T22:33:24.225Z,84.74
2019-02-28T22:35:56.865Z,84.73
2019-02-28T22:38:25.189Z,84.60
2019-02-28T22:40:53.501Z,84.36
2019-02-28T22:43:21.867Z,84.22
2019-02-28T22:45:50.127Z,84.27
2019-02-28T22:48:18.448Z,84.34
2019-02-28T22:50:46.743Z,84.43
2019-02-28T22:53:15.066Z,84.41
2019-02-28T22:55:43.372Z,84.61
2019-02-28T22:58:12.034Z,84.99
2019-02-28T23:01:05.884Z,85.20
2019-02-28T23:03:35.912Z,85.29
2019-02-28T23:06:04.550Z,85.75
2019-02-28T23:08:33.178Z,85.61
2019-02-28T23:11:01.563Z,85.92
2019-02-28T23:13:29.858Z,86.07
2019-02-28T23:15:58.250Z,86.20
2019-02-28T23:18:26.541Z,86.33
2019-02-28T23:20:54.857Z,86.36
2019-02-28T23:23:23.154Z,86.46
2019-02-28T23:25:51.485Z,86.48
2019-02-28T23:28:28.028Z,86.49
2019-02-28T23:31:25.265Z,86.43
2019-02-28T23:34:01.266Z,86.46
2019-02-28T23:36:26.315Z,86.47
2019-02-28T23:38:54.584Z,86.46
2019-02-28T23:41:23.009Z,86.43
2019-02-28T23:43:51.374Z,86.47
2019-02-28T23:46:19.958Z,86.49
2019-02-28T23:48:48.615Z,86.42
2019-02-28T23:51:16.947Z,86.45
2019-02-28T23:53:45.568Z,86.29
2019-02-28T23:56:14.043Z,86.28
2019-02-28T23:58:42.369Z,86.27
